Time;durP1;ratioP1;P1;durP2;ratioP2;P2;SDS_P1;SDS_P2;PMS_P1;PMS_P2;Temp;Humidity;BMP_temperature;BMP_pressure;BME280_temperature;BME280_humidity;BME280_pressure;Samples;Min_cycle;Max_cycle;Signal;HPM_P1;HPM_P2
2021/03/09 00:00:55;;;;;;;11.00;6.22;;;;;;;-3.20;69.16;98730.88;1686100;83;20936;-72
2021/03/09 00:08:27;;;;;;;8.35;5.72;;;;;;;-3.25;68.74;98737.91;1776785;78;21044;-72
2021/03/09 00:10:59;;;;;;;10.68;6.92;;;;;;;-3.27;68.80;98732.66;1776271;77;21376;-72
2021/03/09 00:13:32;;;;;;;9.65;6.50;;;;;;;-3.30;68.83;98726.12;1790618;77;21107;-71
2021/03/09 00:16:02;;;;;;;13.58;6.85;;;;;;;-3.30;68.93;98734.45;1795022;77;21464;-72
2021/03/09 00:18:33;;;;;;;10.70;7.45;;;;;;;-3.31;68.95;98729.65;1792404;77;20936;-72
2021/03/09 02:35:28;;;;;;;12.98;8.05;;;;;;;-4.55;73.24;98708.96;1786072;76;21083;-70
2021/03/09 02:51:30;;;;;;;10.80;7.12;;;;;;;-4.69;73.17;98716.00;1788204;79;21584;-72
2021/03/09 02:56:51;;;;;;;10.55;6.45;;;;;;;-4.81;73.27;98716.48;1762599;79;21177;-72
2021/03/09 02:59:20;;;;;;;11.65;8.53;;;;;;;-4.87;73.31;98719.11;1755020;78;21011;-72
2021/03/09 03:01:51;;;;;;;10.18;7.15;;;;;;;-4.89;73.41;98732.62;1774994;80;21019;-72
2021/03/09 03:04:24;;;;;;;9.30;7.20;;;;;;;-4.94;73.61;98735.70;1763713;79;20900;-71
2021/03/09 03:26:29;;;;;;;9.85;6.70;;;;;;;-5.09;74.31;98751.88;1788711;77;21655;-71
2021/03/09 03:29:01;;;;;;;10.82;6.80;;;;;;;-5.10;74.44;98755.36;1763806;79;26776;-72
2021/03/09 03:31:29;;;;;;;8.83;7.08;;;;;;;-5.10;74.50;98757.98;1746807;78;21561;-72
2021/03/09 04:36:28;;;;;;;13.80;9.43;;;;;;;-5.02;75.05;98790.73;1767488;79;21024;-73
2021/03/09 04:39:04;;;;;;;12.50;8.65;;;;;;;-4.99;75.02;98795.97;1761124;80;21012;-73
2021/03/09 04:53:19;;;;;;;12.95;8.23;;;;;;;-5.04;74.82;98793.80;1744515;80;21027;-73
2021/03/09 04:55:58;;;;;;;14.73;8.95;;;;;;;-5.07;74.88;98793.80;1713518;81;21243;-72
2021/03/09 04:58:28;;;;;;;14.98;8.60;;;;;;;-5.09;74.97;98792.93;1712354;82;21673;-73
2021/03/09 05:01:31;;;;;;;13.22;8.88;;;;;;;-5.09;75.09;98799.03;1719939;81;21116;-73
2021/03/09 05:04:21;;;;;;;11.48;9.13;;;;;;;-5.10;75.21;98803.83;1721623;80;21301;-72
2021/03/09 05:21:08;;;;;;;13.65;9.63;;;;;;;-4.83;75.70;98805.13;1747043;78;20961;-74
2021/03/09 05:23:46;;;;;;;20.88;9.75;;;;;;;-4.69;75.58;98803.36;1777896;77;22300;-72
2021/03/09 05:44:46;;;;;;;16.23;11.48;;;;;;;-3.04;72.24;98809.13;1761222;78;21241;-75
2021/03/09 05:53:47;;;;;;;14.20;11.25;;;;;;;-2.35;70.67;98795.75;1750071;79;21015;-73
2021/03/09 06:06:42;;;;;;;18.67;12.37;;;;;;;-0.95;66.90;98801.73;1772906;80;21630;-75
2021/03/09 06:09:40;;;;;;;16.93;12.43;;;;;;;-0.61;66.09;98805.59;1747570;80;21615;-75
2021/03/09 06:21:54;;;;;;;15.03;13.28;;;;;;;0.66;62.53;98821.97;1768759;77;20952;-75
2021/03/09 06:24:57;;;;;;;34.78;16.93;;;;;;;0.99;61.32;98817.24;1738728;80;21387;-76
2021/03/09 06:41:30;;;;;;;16.37;13.25;;;;;;;2.30;56.43;98832.33;1737109;81;20948;-75
2021/03/09 06:44:02;;;;;;;16.05;13.40;;;;;;;2.42;55.62;98830.66;1744329;80;21064;-76
2021/03/09 06:46:30;;;;;;;27.05;14.93;;;;;;;2.52;55.67;98838.77;1738325;81;21068;-76
2021/03/09 06:49:02;;;;;;;18.02;15.35;;;;;;;2.66;55.48;98840.12;1746556;80;21568;-68
2021/03/09 06:51:35;;;;;;;18.67;14.53;;;;;;;2.77;54.96;98841.98;1739449;81;21219;-74
2021/03/09 06:54:12;;;;;;;16.55;14.47;;;;;;;2.85;54.71;98841.31;1737801;81;20925;-71
2021/03/09 06:56:45;;;;;;;14.58;12.23;;;;;;;2.95;54.00;98841.00;1736115;81;21526;-71
2021/03/09 06:59:25;;;;;;;18.42;12.78;;;;;;;3.09;54.13;98841.45;1739969;81;21070;-75
2021/03/09 07:02:09;;;;;;;13.45;12.05;;;;;;;3.22;53.79;98849.42;1735728;81;21002;-71
2021/03/09 07:04:50;;;;;;;14.55;10.70;;;;;;;3.33;53.31;98846.89;1739570;82;20952;-72
2021/03/09 07:07:38;;;;;;;16.25;11.43;;;;;;;3.44;53.39;98861.53;1729866;81;21478;-73
2021/03/09 07:10:18;;;;;;;14.03;10.82;;;;;;;3.53;53.12;98863.03;1737457;80;20964;-72
2021/03/09 07:12:48;;;;;;;12.47;11.18;;;;;;;3.66;53.00;98860.83;1732909;81;21469;-72
2021/03/09 07:15:19;;;;;;;13.65;10.98;;;;;;;3.76;51.98;98870.20;1741797;81;21064;-72
2021/03/09 07:17:51;;;;;;;14.75;11.20;;;;;;;3.88;51.77;98866.70;1718586;81;21456;-75
2021/03/09 07:20:16;;;;;;;14.95;12.65;;;;;;;4.00;51.58;98864.10;1741131;81;21514;-72
2021/03/09 07:22:46;;;;;;;13.70;11.53;;;;;;;4.04;50.66;98864.41;1733344;81;21078;-73
2021/03/09 07:25:16;;;;;;;14.20;11.57;;;;;;;4.17;50.40;98864.37;1735160;81;21707;-71
2021/03/09 07:28:00;;;;;;;17.15;11.80;;;;;;;4.29;50.22;98863.92;1732624;81;21065;-72
2021/03/09 07:30:36;;;;;;;15.05;10.03;;;;;;;4.42;50.46;98868.80;1719628;82;21775;-71
2021/03/09 07:33:04;;;;;;;14.53;12.03;;;;;;;4.53;49.55;98875.92;1750136;80;21607;-71
2021/03/09 07:38:05;;;;;;;14.83;10.93;;;;;;;4.66;49.68;98869.67;1739622;79;21600;-74
2021/03/09 07:40:34;;;;;;;12.20;10.18;;;;;;;4.59;48.97;98870.38;1724504;81;21523;-73
2021/03/09 07:43:05;;;;;;;12.78;9.33;;;;;;;4.50;49.33;98877.36;1722183;82;21446;-73
2021/03/09 07:45:36;;;;;;;19.02;12.82;;;;;;;4.36;49.52;98877.86;1716611;81;21514;-72
2021/03/09 07:53:13;;;;;;;;;;;;;;;3.73;50.84;98876.09;1725097;81;20906;-76
2021/03/09 07:55:49;;;;;;;15.53;12.10;;;;;;;3.48;51.07;98886.19;1727566;81;22157;-76
2021/03/09 07:58:34;;;;;;;25.05;16.57;;;;;;;3.23;51.80;98881.70;1887008;75;28114;-72
2021/03/09 08:01:10;;;;;;;27.22;20.72;;;;;;;3.00;52.15;98882.41;1861971;77;20896;-72
2021/03/09 08:04:08;;;;;;;17.52;9.08;;;;;;;2.83;52.06;98880.27;1862091;77;21184;-76
2021/03/09 08:06:44;;;;;;;10.13;8.28;;;;;;;2.70;51.60;98881.56;1861973;76;21010;-70
2021/03/09 08:09:35;;;;;;;7.40;6.60;;;;;;;2.57;52.46;98882.82;1861759;77;20919;-75
2021/03/09 08:12:11;;;;;;;6.78;5.42;;;;;;;2.41;51.90;98877.95;1861808;76;20907;-75
2021/03/09 08:14:41;;;;;;;12.58;7.10;;;;;;;2.26;51.37;98880.59;1826677;77;21544;-75
2021/03/09 08:17:27;;;;;;;95.45;49.45;;;;;;;2.14;51.99;98877.84;1862146;77;21792;-75
2021/03/09 08:19:57;;;;;;;42.30;25.32;;;;;;;2.03;52.56;98879.89;1861984;77;21007;-76
2021/03/09 08:22:37;;;;;;;14.90;10.80;;;;;;;1.95;53.73;98877.91;1862042;77;20919;-74
2021/03/09 08:25:06;;;;;;;7.87;7.08;;;;;;;1.94;54.33;98877.48;1862050;77;20903;-75
2021/03/09 08:27:38;;;;;;;8.58;6.67;;;;;;;1.92;53.41;98874.88;1862072;76;20923;-75
2021/03/09 08:30:30;;;;;;;6.35;5.55;;;;;;;1.91;52.09;98881.58;1831179;77;21860;-75
2021/03/09 08:33:23;;;;;;;7.95;6.75;;;;;;;1.90;52.55;98875.84;1861709;77;20959;-74
2021/03/09 08:35:53;;;;;;;11.48;7.67;;;;;;;1.84;53.12;98874.69;1862048;76;21330;-75
2021/03/09 08:38:23;;;;;;;10.28;7.85;;;;;;;1.76;53.46;98868.27;1861976;76;20919;-75
2021/03/09 08:41:09;;;;;;;13.50;9.88;;;;;;;1.73;53.93;98871.84;1862047;77;20924;-76
2021/03/09 08:43:40;;;;;;;22.20;15.60;;;;;;;1.75;54.01;98875.34;1862023;77;21227;-74
2021/03/09 08:46:09;;;;;;;12.00;9.23;;;;;;;1.74;54.41;98870.95;1861965;77;20966;-75
2021/03/09 08:48:50;;;;;;;11.65;9.48;;;;;;;1.77;54.10;98871.34;1862150;77;20900;-74
2021/03/09 08:51:42;;;;;;;11.18;9.53;;;;;;;1.76;54.47;98866.47;1862006;77;20935;-75
2021/03/09 08:54:28;;;;;;;10.40;9.40;;;;;;;1.82;54.68;98865.92;1831265;77;21512;-75
2021/03/09 08:57:01;;;;;;;9.95;8.43;;;;;;;1.87;54.38;98867.98;1848533;76;22294;-76
2021/03/09 08:59:32;;;;;;;16.90;11.90;;;;;;;1.88;54.12;98873.70;1869076;76;21010;-75
2021/03/09 09:02:22;;;;;;;13.28;9.35;;;;;;;1.88;54.05;98871.06;1868950;76;20959;-75
2021/03/09 09:05:06;;;;;;;8.50;7.15;;;;;;;1.89;54.23;98871.45;1839528;76;20998;-74
2021/03/09 09:07:39;;;;;;;9.85;7.70;;;;;;;1.96;53.65;98875.22;1869149;76;20864;-74
2021/03/09 09:10:15;;;;;;;11.57;7.53;;;;;;;2.01;53.00;98871.13;1868502;76;21185;-74
2021/03/09 09:12:46;;;;;;;7.78;6.75;;;;;;;2.12;52.97;98865.07;1868334;76;21331;-75
2021/03/09 09:15:27;;;;;;;10.32;7.60;;;;;;;2.30;52.85;98869.44;1868423;76;20915;-76
2021/03/09 09:18:02;;;;;;;11.12;7.55;;;;;;;2.48;52.88;98868.92;1868434;76;20927;-74
2021/03/09 09:20:37;;;;;;;8.18;7.37;;;;;;;2.66;52.18;98874.59;1868688;76;20962;-76
2021/03/09 09:23:23;;;;;;;8.10;5.42;;;;;;;2.83;51.21;98874.09;1868966;76;21349;-76
2021/03/09 09:26:00;;;;;;;6.90;6.10;;;;;;;2.97;50.50;98872.36;1868475;76;20967;-76
2021/03/09 09:28:34;;;;;;;7.12;5.80;;;;;;;3.02;49.50;98870.42;1868054;76;21333;-74
2021/03/09 09:31:14;;;;;;;8.38;7.42;;;;;;;3.07;49.58;98869.81;1868311;76;20927;-74
2021/03/09 09:33:50;;;;;;;9.93;8.50;;;;;;;3.11;49.68;98870.14;1868414;76;21313;-74
2021/03/09 09:36:21;;;;;;;80.70;41.50;;;;;;;3.12;50.21;98865.22;1868093;76;21006;-74
2021/03/09 09:38:53;;;;;;;37.15;19.50;;;;;;;3.12;49.62;98866.55;1868141;76;20959;-74
2021/03/09 09:41:22;;;;;;;13.75;10.65;;;;;;;3.10;49.59;98866.20;1868258;76;20971;-73
2021/03/09 09:43:50;;;;;;;42.75;24.92;;;;;;;3.04;49.20;98867.25;1868457;76;20967;-73
2021/03/09 09:46:24;;;;;;;12.93;10.00;;;;;;;2.99;49.43;98862.55;1868808;76;21344;-73
2021/03/09 09:48:52;;;;;;;22.50;17.32;;;;;;;2.96;49.88;98864.83;1868330;76;21185;-74
2021/03/09 09:51:22;;;;;;;19.95;11.50;;;;;;;2.93;49.95;98869.38;1868286;76;20963;-74
2021/03/09 09:53:51;;;;;;;8.28;7.42;;;;;;;2.92;49.33;98867.63;1868339;76;20927;-73
2021/03/09 09:56:25;;;;;;;8.03;6.67;;;;;;;2.87;49.71;98866.00;1868258;76;20923;-73
2021/03/09 09:59:01;;;;;;;6.65;5.78;;;;;;;2.84;49.35;98863.91;1856681;76;20939;-75
2021/03/09 10:01:38;;;;;;;6.35;5.72;;;;;;;2.81;48.44;98866.19;1855408;77;22233;-74
2021/03/09 10:04:13;;;;;;;6.78;5.37;;;;;;;2.78;48.36;98867.60;1855337;77;20990;-74
2021/03/09 10:06:49;;;;;;;6.92;6.05;;;;;;;2.82;48.28;98863.95;1855411;77;21413;-74
2021/03/09 10:09:23;;;;;;;6.08;4.95;;;;;;;2.92;48.91;98864.97;1855303;77;21058;-74
2021/03/09 10:12:04;;;;;;;6.55;4.85;;;;;;;3.01;48.73;98867.34;1855417;77;20904;-74
2021/03/09 10:14:32;;;;;;;9.25;5.58;;;;;;;3.11;48.42;98863.50;1855346;77;21354;-73
2021/03/09 10:17:01;;;;;;;6.50;5.72;;;;;;;3.19;48.15;98871.22;1855361;77;21452;-74
2021/03/09 10:19:37;;;;;;;8.50;5.85;;;;;;;3.30;47.61;98870.89;1822851;77;20931;-74
2021/03/09 10:22:19;;;;;;;6.72;5.08;;;;;;;3.37;48.42;98865.77;1855418;77;21484;-74
2021/03/09 10:24:47;;;;;;;6.22;5.33;;;;;;;3.45;47.25;98859.73;1854474;77;20971;-74
2021/03/09 10:27:22;;;;;;;5.83;4.53;;;;;;;3.53;46.96;98860.38;1823800;77;22363;-75
2021/03/09 10:29:55;;;;;;;5.20;2.90;;;;;;;3.60;46.21;98859.23;1855245;77;20979;-74
2021/03/09 10:32:25;;;;;;;3.52;3.22;;;;;;;3.63;44.96;98855.62;1855376;77;20872;-74
2021/03/09 10:34:55;;;;;;;4.90;2.87;;;;;;;3.57;44.26;98851.36;1855206;77;20908;-74
2021/03/09 10:37:41;;;;;;;4.00;3.33;;;;;;;3.50;43.75;98855.16;1855317;77;20869;-74
2021/03/09 10:40:11;;;;;;;;;;;;;;;3.44;42.58;98860.67;1858182;77;22752;-74
2021/03/09 10:42:46;;;;;;;5.95;4.17;;;;;;;3.33;43.21;98866.80;1855099;76;20142;-74
2021/03/09 10:45:28;;;;;;;4.60;3.85;;;;;;;3.18;43.84;98867.68;1849134;77;20924;-74
2021/03/09 10:48:02;;;;;;;6.53;5.05;;;;;;;3.01;44.41;98864.69;1855382;77;21030;-74
2021/03/09 10:50:42;;;;;;;3.72;3.35;;;;;;;2.86;44.29;98874.01;1855551;77;21438;-74
2021/03/09 10:53:09;;;;;;;8.70;5.03;;;;;;;2.75;44.27;98876.98;1855259;77;21420;-73
2021/03/09 10:55:41;;;;;;;4.80;4.12;;;;;;;2.63;45.86;98869.38;1855263;77;20932;-74
2021/03/09 10:58:13;;;;;;;9.40;5.15;;;;;;;2.63;46.27;98868.05;1861433;76;21305;-73
2021/03/09 11:00:42;;;;;;;5.53;4.47;;;;;;;2.66;45.87;98861.34;1868264;76;21396;-73
2021/03/09 11:03:10;;;;;;;6.60;4.90;;;;;;;2.74;45.48;98861.97;1868112;76;20963;-73
2021/03/09 11:05:38;;;;;;;4.22;3.85;;;;;;;2.76;45.84;98854.86;1868332;76;21385;-73
2021/03/09 11:08:08;;;;;;;4.65;3.92;;;;;;;2.80;45.59;98858.27;1868244;76;20959;-73
2021/03/09 11:10:37;;;;;;;16.48;13.60;;;;;;;2.84;45.37;98850.17;1868223;76;20915;-74
2021/03/09 11:13:04;;;;;;;5.97;5.25;;;;;;;2.84;44.98;98850.17;1868197;76;20900;-73
2021/03/09 11:15:35;;;;;;;4.78;4.33;;;;;;;2.82;46.76;98841.41;1868111;76;20919;-75
2021/03/09 11:18:02;;;;;;;7.90;6.10;;;;;;;2.84;46.68;98845.34;1868196;76;21184;-75
2021/03/09 11:20:35;;;;;;;5.08;4.40;;;;;;;2.83;46.73;98845.77;1868229;76;21480;-73
2021/03/09 11:23:03;;;;;;;5.45;3.47;;;;;;;2.84;45.97;98843.55;1868337;76;20915;-74
2021/03/09 11:25:34;;;;;;;4.28;3.72;;;;;;;2.84;45.53;98850.17;1868212;76;20995;-73
2021/03/09 11:28:02;;;;;;;6.85;3.85;;;;;;;2.81;44.88;98848.09;1868279;76;21404;-74
2021/03/09 11:30:32;;;;;;;5.08;4.58;;;;;;;2.76;45.08;98838.94;1868252;76;21367;-74
2021/03/09 11:33:00;;;;;;;6.90;4.67;;;;;;;2.71;45.58;98838.19;1868128;76;20983;-74
2021/03/09 11:35:30;;;;;;;5.20;3.87;;;;;;;2.68;46.17;98831.64;1868219;76;20998;-75
2021/03/09 11:38:01;;;;;;;4.83;3.87;;;;;;;2.62;44.77;98827.88;1868142;76;21010;-75
2021/03/09 11:40:31;;;;;;;8.15;4.53;;;;;;;2.56;43.92;98828.06;1868332;76;21412;-75
2021/03/09 11:42:59;;;;;;;148.32;65.67;;;;;;;2.51;44.45;98831.71;1868437;76;21360;-74
2021/03/09 11:45:27;;;;;;;53.55;17.25;;;;;;;2.48;44.51;98825.17;1839370;76;21503;-74
2021/03/09 11:47:56;;;;;;;25.95;12.55;;;;;;;2.46;45.42;98827.01;1868214;76;20895;-74
2021/03/09 11:50:25;;;;;;;10.38;6.58;;;;;;;2.43;45.64;98814.28;1868194;76;20915;-74
2021/03/09 11:52:53;;;;;;;6.45;5.35;;;;;;;2.46;45.61;98820.81;1868222;76;20875;-74
2021/03/09 11:55:21;;;;;;;5.28;4.30;;;;;;;2.46;45.59;98808.45;1868179;76;21337;-74
2021/03/09 11:57:50;;;;;;;5.03;3.98;;;;;;;2.50;45.62;98808.75;1865220;76;21014;-74
2021/03/09 12:00:21;;;;;;;6.05;4.70;;;;;;;2.56;46.02;98806.85;1855573;77;20983;-75
2021/03/09 12:02:49;;;;;;;5.10;4.47;;;;;;;2.59;45.75;98804.97;1856591;77;21397;-74
2021/03/09 12:05:18;;;;;;;7.65;4.60;;;;;;;2.60;45.47;98809.37;1856781;77;21019;-75
2021/03/09 12:07:46;;;;;;;6.42;4.55;;;;;;;2.62;45.55;98806.20;1856745;77;21652;-73
2021/03/09 12:10:14;;;;;;;6.40;4.40;;;;;;;2.63;44.33;98803.08;1856187;77;20940;-73
2021/03/09 12:12:44;;;;;;;6.92;5.67;;;;;;;2.59;44.91;98798.80;1855468;77;20932;-74
2021/03/09 12:15:13;;;;;;;8.43;4.83;;;;;;;2.52;45.63;98796.77;1855153;77;21506;-73
2021/03/09 12:17:40;;;;;;;10.82;5.65;;;;;;;2.49;45.96;98790.23;1855126;77;20952;-73
2021/03/09 12:20:08;;;;;;;7.40;5.00;;;;;;;2.43;45.83;98791.31;1855307;77;21142;-73
2021/03/09 12:22:37;;;;;;;6.90;5.45;;;;;;;2.40;46.49;98791.40;1855166;77;20939;-74
2021/03/09 12:25:06;;;;;;;6.35;5.67;;;;;;;2.34;45.80;98780.98;1855282;77;20908;-74
2021/03/09 12:27:36;;;;;;;7.58;6.28;;;;;;;2.31;46.14;98775.77;1855044;77;20924;-75
2021/03/09 12:30:11;;;;;;;16.60;5.85;;;;;;;2.26;47.50;98783.85;1855253;77;20992;-74
2021/03/09 12:32:38;;;;;;;8.78;6.17;;;;;;;2.16;47.13;98779.28;1855307;77;22193;-74
2021/03/09 12:35:10;;;;;;;8.93;6.53;;;;;;;2.09;48.56;98784.34;1855424;77;20928;-78
2021/03/09 12:37:38;;;;;;;7.65;6.10;;;;;;;1.97;48.75;98788.22;1855502;77;20963;-74
2021/03/09 12:40:07;;;;;;;6.62;5.92;;;;;;;1.91;49.08;98788.86;1855227;77;20908;-74
2021/03/09 12:42:38;;;;;;;8.18;6.87;;;;;;;1.82;49.38;98785.99;1855267;77;21003;-75
2021/03/09 12:45:07;;;;;;;8.05;7.25;;;;;;;1.76;50.04;98785.70;1855404;77;20929;-75
2021/03/09 12:47:35;;;;;;;7.65;6.83;;;;;;;1.73;50.51;98785.78;1855327;77;20915;-74
2021/03/09 12:50:09;;;;;;;8.85;7.78;;;;;;;1.60;51.15;98783.06;1855429;77;21536;-75
2021/03/09 12:52:39;;;;;;;11.85;8.13;;;;;;;1.54;50.85;98785.88;1855426;77;21334;-74
2021/03/09 12:55:10;;;;;;;12.28;8.70;;;;;;;1.54;52.05;98785.88;1855767;77;20963;-74
2021/03/09 12:57:38;;;;;;;11.38;6.72;;;;;;;1.47;50.40;98789.14;1855567;77;21318;-74
2021/03/09 13:00:07;;;;;;;10.58;6.00;;;;;;;1.43;49.57;98793.66;1855408;76;21450;-75
2021/03/09 13:02:42;;;;;;;8.05;5.67;;;;;;;1.35;48.97;98794.28;1855543;77;21512;-74
2021/03/09 13:05:11;;;;;;;6.60;5.80;;;;;;;1.32;49.53;98794.83;1855336;77;20990;-75
2021/03/09 13:07:39;;;;;;;10.35;6.80;;;;;;;1.29;50.47;98791.80;1855412;76;20963;-75
2021/03/09 13:10:09;;;;;;;10.03;6.22;;;;;;;1.28;50.23;98786.11;1855288;77;21372;-76
2021/03/09 13:12:37;;;;;;;7.75;5.42;;;;;;;1.29;49.43;98791.80;1855293;77;20971;-74
2021/03/09 13:15:07;;;;;;;5.47;4.90;;;;;;;1.31;49.91;98784.70;1855330;77;20995;-73
2021/03/09 13:17:39;;;;;;;7.95;6.85;;;;;;;1.33;49.57;98787.31;1823108;77;21321;-74
2021/03/09 13:20:12;;;;;;;7.67;6.72;;;;;;;1.35;50.17;98785.48;1855493;77;20923;-74
2021/03/09 13:22:40;;;;;;;7.75;6.08;;;;;;;1.40;49.93;98785.80;1855193;76;22579;-75
2021/03/09 13:25:12;;;;;;;10.50;6.95;;;;;;;1.41;48.71;98780.04;1855265;77;20947;-74
2021/03/09 13:27:42;;;;;;;8.53;6.95;;;;;;;1.40;48.88;98781.83;1855621;77;21431;-73
2021/03/09 13:30:18;;;;;;;9.55;7.62;;;;;;;1.38;49.21;98787.59;1855305;77;21552;-75
2021/03/09 13:32:48;;;;;;;9.43;6.97;;;;;;;1.32;49.21;98777.62;1823607;77;21019;-74
2021/03/09 13:35:16;;;;;;;14.68;7.12;;;;;;;1.26;49.37;98786.58;1855363;77;21353;-74
2021/03/09 13:37:46;;;;;;;7.53;6.10;;;;;;;1.24;49.79;98791.05;1855175;77;20884;-74
2021/03/09 13:40:16;;;;;;;7.00;6.30;;;;;;;1.22;49.65;98792.88;1855383;77;20936;-74
2021/03/09 13:42:50;;;;;;;8.58;7.28;;;;;;;1.22;50.05;98798.17;1855216;77;20920;-74
2021/03/09 13:45:19;;;;;;;8.00;6.50;;;;;;;1.21;50.28;98797.28;1855332;77;20931;-74
2021/03/09 13:47:47;;;;;;;8.73;7.25;;;;;;;1.24;50.50;98793.70;1855298;77;21358;-74
2021/03/09 13:50:16;;;;;;;12.15;7.35;;;;;;;1.25;50.07;98787.51;1855234;77;20927;-74
2021/03/09 13:52:48;;;;;;;7.20;6.47;;;;;;;1.27;49.79;98788.33;1855281;77;21473;-74
2021/03/09 13:55:15;;;;;;;7.58;6.58;;;;;;;1.28;49.97;98794.05;1855199;77;20924;-74
2021/03/09 13:57:43;;;;;;;12.73;7.20;;;;;;;1.27;49.56;98794.94;1822559;77;20865;-75
2021/03/09 14:00:13;;;;;;;9.90;7.65;;;;;;;1.24;49.61;98793.23;1855216;76;21859;-73
2021/03/09 14:02:42;;;;;;;10.63;7.25;;;;;;;1.21;49.23;98792.45;1852382;77;20929;-74
2021/03/09 14:05:12;;;;;;;14.05;7.75;;;;;;;1.21;49.88;98795.09;1855676;77;21433;-74
2021/03/09 14:07:43;;;;;;;9.95;7.47;;;;;;;1.21;49.96;98789.80;1855532;77;20924;-74
2021/03/09 14:10:11;;;;;;;8.63;7.17;;;;;;;1.22;50.06;98794.20;1855338;77;20979;-74
2021/03/09 14:12:43;;;;;;;9.18;7.53;;;;;;;1.21;49.04;98785.84;1823009;77;21457;-74
2021/03/09 14:15:14;;;;;;;8.48;6.95;;;;;;;1.18;49.45;98781.51;1855341;77;20995;-74
2021/03/09 14:17:43;;;;;;;13.32;7.97;;;;;;;1.17;49.93;98777.58;1855376;77;20923;-75
2021/03/09 14:20:15;;;;;;;9.73;8.35;;;;;;;1.14;50.48;98784.27;1855361;77;20876;-74
2021/03/09 14:22:45;;;;;;;8.43;7.40;;;;;;;1.06;50.31;98776.52;1855278;77;21358;-74
2021/03/09 14:25:14;;;;;;;105.37;42.10;;;;;;;1.07;50.54;98775.16;1855308;77;21812;-74
2021/03/09 14:27:42;;;;;;;16.30;10.40;;;;;;;1.04;50.96;98773.02;1855199;77;21413;-74
2021/03/09 14:30:18;;;;;;;10.88;8.68;;;;;;;1.02;51.41;98774.37;1855341;77;20968;-74
2021/03/09 14:32:47;;;;;;;11.48;8.83;;;;;;;0.99;51.82;98772.27;1855285;77;21342;-73
2021/03/09 14:35:17;;;;;;;13.75;10.28;;;;;;;0.96;52.30;98773.20;1855207;77;20920;-74
2021/03/09 14:37:50;;;;;;;10.48;8.43;;;;;;;0.90;53.22;98766.31;1855200;77;21350;-74
2021/03/09 14:40:23;;;;;;;21.95;10.13;;;;;;;0.85;54.45;98763.34;1855231;77;21003;-74
2021/03/09 14:42:51;;;;;;;12.47;9.28;;;;;;;0.78;54.72;98763.09;1855451;77;20975;-73
2021/03/09 14:45:19;;;;;;;10.15;9.05;;;;;;;0.72;55.04;98762.31;1855261;77;20995;-74
2021/03/09 14:47:48;;;;;;;11.70;7.50;;;;;;;0.62;55.21;98764.77;1855303;77;20907;-74
2021/03/09 14:50:18;;;;;;;9.55;8.25;;;;;;;0.55;54.92;98763.16;1855352;77;22281;-74
2021/03/09 14:52:47;;;;;;;10.35;8.10;;;;;;;0.43;54.66;98756.86;1855315;77;21476;-75
2021/03/09 14:55:16;;;;;;;10.08;9.08;;;;;;;0.38;55.14;98760.03;1850277;77;21468;-74
2021/03/09 14:57:45;;;;;;;13.15;11.30;;;;;;;0.30;55.67;98758.88;1851846;77;20952;-75
2021/03/09 15:00:17;;;;;;;15.95;11.30;;;;;;;0.21;55.71;98757.33;1865314;76;20895;-74
2021/03/09 15:02:45;;;;;;;9.85;8.28;;;;;;;0.16;55.81;98752.14;1868245;76;21355;-74
2021/03/09 15:05:13;;;;;;;12.75;8.88;;;;;;;0.09;55.92;98753.63;1868326;76;21468;-75
2021/03/09 15:07:46;;;;;;;;;;;;;;;0.03;56.01;98755.08;1871089;76;20880;-75
2021/03/09 15:10:16;;;;;;;13.20;8.45;;;;;;;-0.02;56.17;98753.84;1868204;76;20297;-75
2021/03/09 15:12:45;;;;;;;8.65;7.75;;;;;;;-0.09;55.30;98750.47;1868374;76;21321;-75
2021/03/09 15:15:14;;;;;;;10.58;8.93;;;;;;;-0.11;55.25;98754.03;1868347;76;22278;-74
2021/03/09 15:17:43;;;;;;;11.38;9.48;;;;;;;-0.19;55.32;98740.98;1867956;76;21050;-73
2021/03/09 15:20:15;;;;;;;13.25;9.45;;;;;;;-0.22;55.37;98744.58;1812845;76;21476;-73
2021/03/09 15:22:44;;;;;;;11.20;8.90;;;;;;;-0.23;55.91;98752.53;1868193;76;21452;-73
2021/03/09 15:25:15;;;;;;;13.88;10.03;;;;;;;-0.26;55.94;98748.17;1868377;76;21321;-74
2021/03/09 15:27:45;;;;;;;15.98;12.15;;;;;;;-0.30;55.89;98746.52;1868082;76;21801;-74
2021/03/09 15:30:13;;;;;;;13.00;10.60;;;;;;;-0.34;56.02;98745.28;1868211;76;21116;-73
2021/03/09 15:32:43;;;;;;;15.08;11.25;;;;;;;-0.37;56.06;98748.38;1868075;76;20951;-74
2021/03/09 15:35:12;;;;;;;23.18;12.50;;;;;;;-0.41;55.90;98746.72;1839786;76;20959;-74
2021/03/09 15:37:44;;;;;;;17.95;11.97;;;;;;;-0.44;56.11;98751.16;1868288;76;20990;-73
2021/03/09 15:40:17;;;;;;;18.70;13.40;;;;;;;-0.47;55.94;98748.16;1868388;76;22118;-74
2021/03/09 15:42:46;;;;;;;22.45;16.93;;;;;;;-0.53;55.99;98746.95;1868664;76;20923;-74
2021/03/09 15:45:19;;;;;;;19.65;10.93;;;;;;;-0.55;56.43;98755.35;1868735;76;20912;-74
2021/03/09 15:47:48;;;;;;;9.63;8.50;;;;;;;-0.59;56.05;98753.66;1868388;76;20903;-74
2021/03/09 15:50:18;;;;;;;11.45;9.13;;;;;;;-0.61;55.93;98747.55;1868457;76;21025;-74
2021/03/09 15:52:48;;;;;;;13.55;8.73;;;;;;;-0.62;55.86;98751.07;1868434;76;22302;-74
2021/03/09 15:55:16;;;;;;;9.85;8.68;;;;;;;-0.65;55.61;98749.34;1868537;76;21353;-75
2021/03/09 15:57:48;;;;;;;15.32;8.48;;;;;;;-0.64;55.71;98752.88;1868452;76;21033;-74
2021/03/09 16:00:16;;;;;;;15.98;8.30;;;;;;;-0.67;55.99;98748.98;1858943;76;20893;-75
2021/03/09 16:02:45;;;;;;;25.90;10.03;;;;;;;-0.68;56.05;98762.59;1855287;77;20922;-72
2021/03/09 16:05:17;;;;;;;16.10;9.28;;;;;;;-0.70;56.14;98766.17;1787244;75;21185;-74
2021/03/09 16:10:20;;;;;;;21.85;13.95;;;;;;;-0.72;56.67;98770.62;1751725;78;21445;-74
2021/03/09 16:16:05;;;;;;;35.08;11.25;;;;;;;-0.74;57.17;98775.47;1763574;75;21136;-75
2021/03/09 16:18:36;;;;;;;15.13;8.98;;;;;;;-0.74;57.20;98780.73;1768610;79;22690;-73
2021/03/09 16:40:50;;;;;;;33.48;21.25;;;;;;;-0.96;57.55;98779.38;1699485;83;20965;-74
2021/03/09 16:49:26;;;;;;;29.75;19.27;;;;;;;-1.19;57.75;98784.56;1777221;76;21165;-76
2021/03/09 16:52:24;;;;;;;38.80;21.95;;;;;;;-1.28;57.77;98780.74;1740844;78;21441;-75
2021/03/09 16:54:56;;;;;;;37.38;23.65;;;;;;;-1.38;57.92;98780.48;1738792;82;21541;-75
2021/03/09 16:57:24;;;;;;;38.20;24.15;;;;;;;-1.47;58.06;98783.68;1738588;82;21008;-75
2021/03/09 16:59:53;;;;;;;46.90;27.85;;;;;;;-1.53;58.45;98782.88;1738638;82;21023;-75
2021/03/09 17:02:22;;;;;;;61.08;33.50;;;;;;;-1.62;58.77;98781.26;1738610;82;21211;-75
2021/03/09 17:04:54;;;;;;;55.35;33.50;;;;;;;-1.69;58.92;98783.54;1738868;82;20941;-74
2021/03/09 17:07:25;;;;;;;53.17;31.80;;;;;;;-1.76;59.04;98785.85;1739260;82;21055;-73
2021/03/09 17:09:53;;;;;;;77.62;35.68;;;;;;;-1.85;59.73;98786.38;1739222;82;21000;-74
2021/03/09 17:12:21;;;;;;;57.75;33.40;;;;;;;-1.91;60.01;98789.08;1738981;81;20932;-76
2021/03/09 17:14:49;;;;;;;72.70;38.45;;;;;;;-2.00;60.08;98794.49;1738661;82;21143;-75
2021/03/09 17:17:17;;;;;;;86.45;38.28;;;;;;;-2.06;60.56;98790.62;1738443;82;20972;-75
2021/03/09 17:19:46;;;;;;;79.22;38.35;;;;;;;-2.14;60.96;98790.70;1738598;82;21537;-74
2021/03/09 17:22:14;;;;;;;83.25;34.73;;;;;;;-2.20;61.42;98790.77;1715738;82;21386;-76
2021/03/09 17:24:45;;;;;;;92.80;37.73;;;;;;;-2.26;61.84;98791.70;1738513;82;21004;-76
2021/03/09 17:27:18;;;;;;;85.92;37.65;;;;;;;-2.31;62.34;98790.89;1738526;82;21389;-78
2021/03/09 17:29:46;;;;;;;79.58;39.95;;;;;;;-2.37;63.05;98797.53;1738546;82;21020;-77
2021/03/09 17:32:13;;;;;;;88.52;39.98;;;;;;;-2.43;63.59;98793.66;1738568;82;21003;-76
2021/03/09 17:34:42;;;;;;;82.35;38.25;;;;;;;-2.49;63.90;98793.71;1738547;82;21449;-75
2021/03/09 17:37:13;;;;;;;85.50;40.60;;;;;;;-2.55;63.99;98800.79;1738574;82;20904;-76
2021/03/09 17:39:40;;;;;;;74.20;38.08;;;;;;;-2.59;64.00;98804.78;1738545;82;22134;-77
2021/03/09 17:42:09;;;;;;;75.10;39.40;;;;;;;-2.65;64.06;98809.67;1738566;82;20924;-75
2021/03/09 17:44:36;;;;;;;80.57;40.20;;;;;;;-2.68;64.19;98811.02;1739033;82;21354;-75
2021/03/09 17:47:04;;;;;;;128.10;46.68;;;;;;;-2.72;64.29;98815.86;1738953;82;21457;-76
2021/03/09 17:49:37;;;;;;;101.42;47.85;;;;;;;-2.74;64.48;98816.33;1738637;82;21433;-76
2021/03/09 17:52:09;;;;;;;84.42;41.85;;;;;;;-2.79;65.02;98820.31;1750254;81;21914;-77
2021/03/09 17:54:41;;;;;;;83.92;41.75;;;;;;;-2.82;65.43;98815.50;1760486;81;20947;-76
2021/03/09 17:57:10;;;;;;;75.35;38.65;;;;;;;-2.84;65.61;98823.85;1760264;81;21405;-75